sensor_id;sensor_type;location;lat;lon;timestamp;temperature;humidity
12602;DHT22;30282;16.436;99.370;2023-04-03T00:01:39;23.50;99.90
12602;DHT22;30282;16.436;99.370;2023-04-03T00:04:10;23.70;99.90
12602;DHT22;30282;16.436;99.370;2023-04-03T00:06:39;23.70;99.90
12602;DHT22;30282;16.436;99.370;2023-04-03T00:09:09;23.80;99.90
12602;DHT22;30282;16.436;99.370;2023-04-03T00:11:38;23.80;99.90
12602;DHT22;30282;16.436;99.370;2023-04-03T00:14:10;23.80;99.90
12602;DHT22;30282;16.436;99.370;2023-04-03T00:16:39;23.70;99.90
12602;DHT22;30282;16.436;99.370;2023-04-03T00:19:10;23.70;99.90
12602;DHT22;30282;16.436;99.370;2023-04-03T00:21:40;23.70;99.90
12602;DHT22;30282;16.436;99.370;2023-04-03T00:24:09;23.80;99.90
12602;DHT22;30282;16.436;99.370;2023-04-03T00:26:38;24.00;99.90
12602;DHT22;30282;16.436;99.370;2023-04-03T00:29:08;24.10;99.90
12602;DHT22;30282;16.436;99.370;2023-04-03T00:31:37;24.10;99.90
12602;DHT22;30282;16.436;99.370;2023-04-03T00:34:06;24.10;99.90
12602;DHT22;30282;16.436;99.370;2023-04-03T00:36:37;24.10;99.90
12602;DHT22;30282;16.436;99.370;2023-04-03T00:39:06;24.20;99.90
12602;DHT22;30282;16.436;99.370;2023-04-03T00:41:38;24.30;99.90
12602;DHT22;30282;16.436;99.370;2023-04-03T00:44:22;24.40;99.90
12602;DHT22;30282;16.436;99.370;2023-04-03T00:46:51;24.50;99.90
12602;DHT22;30282;16.436;99.370;2023-04-03T00:49:21;24.70;99.90
12602;DHT22;30282;16.436;99.370;2023-04-03T00:51:52;24.90;99.90
12602;DHT22;30282;16.436;99.370;2023-04-03T00:54:21;25.00;99.90
12602;DHT22;30282;16.436;99.370;2023-04-03T00:56:51;25.10;99.90
12602;DHT22;30282;16.436;99.370;2023-04-03T00:59:25;25.20;99.90
12602;DHT22;30282;16.436;99.370;2023-04-03T01:01:56;25.30;99.90
12602;DHT22;30282;16.436;99.370;2023-04-03T01:04:28;25.40;99.90
12602;DHT22;30282;16.436;99.370;2023-04-03T01:07:02;25.50;99.90
12602;DHT22;30282;16.436;99.370;2023-04-03T01:09:34;25.60;99.90
12602;DHT22;30282;16.436;99.370;2023-04-03T01:12:16;25.70;99.90
12602;DHT22;30282;16.436;99.370;2023-04-03T01:14:48;25.80;99.90
12602;DHT22;30282;16.436;99.370;2023-04-03T01:17:38;25.90;99.90
12602;DHT22;30282;16.436;99.370;2023-04-03T01:20:44;26.00;99.90
12602;DHT22;30282;16.436;99.370;2023-04-03T01:23:29;26.20;99.90
12602;DHT22;30282;16.436;99.370;2023-04-03T01:26:01;26.30;99.90
12602;DHT22;30282;16.436;99.370;2023-04-03T01:28:32;26.50;99.90
12602;DHT22;30282;16.436;99.370;2023-04-03T01:31:10;26.70;99.90
12602;DHT22;30282;16.436;99.370;2023-04-03T01:33:44;26.80;99.90
12602;DHT22;30282;16.436;99.370;2023-04-03T01:36:15;27.00;99.90
12602;DHT22;30282;16.436;99.370;2023-04-03T01:38:44;27.10;99.90
12602;DHT22;30282;16.436;99.370;2023-04-03T01:41:14;27.30;99.90
12602;DHT22;30282;16.436;99.370;2023-04-03T01:43:44;27.50;99.90
12602;DHT22;30282;16.436;99.370;2023-04-03T01:46:13;27.60;99.90
12602;DHT22;30282;16.436;99.370;2023-04-03T01:48:46;27.80;99.90
12602;DHT22;30282;16.436;99.370;2023-04-03T01:51:16;27.90;99.90
12602;DHT22;30282;16.436;99.370;2023-04-03T01:53:45;28.10;99.90
12602;DHT22;30282;16.436;99.370;2023-04-03T01:56:15;28.20;99.90
12602;DHT22;30282;16.436;99.370;2023-04-03T01:58:44;28.40;99.90
12602;DHT22;30282;16.436;99.370;2023-04-03T02:01:14;28.50;99.90
12602;DHT22;30282;16.436;99.370;2023-04-03T02:03:45;28.60;99.90
12602;DHT22;30282;16.436;99.370;2023-04-03T02:06:14;28.60;99.90
12602;DHT22;30282;16.436;99.370;2023-04-03T02:08:44;28.70;99.90
12602;DHT22;30282;16.436;99.370;2023-04-03T02:11:14;28.80;99.90
12602;DHT22;30282;16.436;99.370;2023-04-03T02:13:43;28.90;99.90
12602;DHT22;30282;16.436;99.370;2023-04-03T02:16:12;29.10;99.90
12602;DHT22;30282;16.436;99.370;2023-04-03T02:18:42;29.20;99.90
12602;DHT22;30282;16.436;99.370;2023-04-03T02:21:13;29.40;99.90
12602;DHT22;30282;16.436;99.370;2023-04-03T02:23:42;29.50;99.90
12602;DHT22;30282;16.436;99.370;2023-04-03T02:26:15;29.60;99.90
12602;DHT22;30282;16.436;99.370;2023-04-03T02:28:44;29.60;99.90
12602;DHT22;30282;16.436;99.370;2023-04-03T02:31:20;29.70;99.90
12602;DHT22;30282;16.436;99.370;2023-04-03T02:33:58;29.80;99.90
12602;DHT22;30282;16.436;99.370;2023-04-03T02:36:32;30.00;99.90
12602;DHT22;30282;16.436;99.370;2023-04-03T02:39:02;30.10;99.90
12602;DHT22;30282;16.436;99.370;2023-04-03T02:41:35;30.30;99.90
12602;DHT22;30282;16.436;99.370;2023-04-03T02:44:05;30.40;99.90
12602;DHT22;30282;16.436;99.370;2023-04-03T02:46:35;30.60;99.90
12602;DHT22;30282;16.436;99.370;2023-04-03T02:49:04;30.70;99.90
12602;DHT22;30282;16.436;99.370;2023-04-03T02:51:35;30.80;99.90
12602;DHT22;30282;16.436;99.370;2023-04-03T02:54:05;30.90;99.90
12602;DHT22;30282;16.436;99.370;2023-04-03T02:56:34;31.00;99.90
12602;DHT22;30282;16.436;99.370;2023-04-03T02:59:04;31.20;99.90
12602;DHT22;30282;16.436;99.370;2023-04-03T03:01:33;31.30;99.90
12602;DHT22;30282;16.436;99.370;2023-04-03T03:04:03;31.40;99.90
12602;DHT22;30282;16.436;99.370;2023-04-03T03:06:34;31.50;99.90
12602;DHT22;30282;16.436;99.370;2023-04-03T03:09:03;31.60;99.90
12602;DHT22;30282;16.436;99.370;2023-04-03T03:11:33;31.60;99.90
12602;DHT22;30282;16.436;99.370;2023-04-03T03:14:02;31.70;99.90
12602;DHT22;30282;16.436;99.370;2023-04-03T03:16:32;31.70;99.90
12602;DHT22;30282;16.436;99.370;2023-04-03T03:19:04;31.80;99.90
12602;DHT22;30282;16.436;99.370;2023-04-03T03:21:35;32.00;99.90
12602;DHT22;30282;16.436;99.370;2023-04-03T03:24:05;32.10;99.90
12602;DHT22;30282;16.436;99.370;2023-04-03T03:26:34;32.20;99.90
12602;DHT22;30282;16.436;99.370;2023-04-03T03:29:04;32.20;99.90
12602;DHT22;30282;16.436;99.370;2023-04-03T03:31:33;32.20;99.90
12602;DHT22;30282;16.436;99.370;2023-04-03T03:34:02;32.30;99.90
12602;DHT22;30282;16.436;99.370;2023-04-03T03:36:32;32.40;99.90
12602;DHT22;30282;16.436;99.370;2023-04-03T03:39:03;32.50;99.90
12602;DHT22;30282;16.436;99.370;2023-04-03T03:41:32;32.60;99.90
12602;DHT22;30282;16.436;99.370;2023-04-03T03:44:02;32.70;99.90
12602;DHT22;30282;16.436;99.370;2023-04-03T03:46:31;32.80;99.90
12602;DHT22;30282;16.436;99.370;2023-04-03T03:49:00;33.00;99.90
12602;DHT22;30282;16.436;99.370;2023-04-03T03:51:30;33.00;99.90
12602;DHT22;30282;16.436;99.370;2023-04-03T03:54:01;33.10;99.90
12602;DHT22;30282;16.436;99.370;2023-04-03T03:56:30;33.20;99.90
12602;DHT22;30282;16.436;99.370;2023-04-03T03:58:59;33.30;99.90
12602;DHT22;30282;16.436;99.370;2023-04-03T04:01:29;33.50;99.90
12602;DHT22;30282;16.436;99.370;2023-04-03T04:03:59;33.50;99.90
12602;DHT22;30282;16.436;99.370;2023-04-03T04:06:32;33.50;99.90
12602;DHT22;30282;16.436;99.370;2023-04-03T04:09:03;33.70;99.90
12602;DHT22;30282;16.436;99.370;2023-04-03T04:11:32;33.80;99.90
12602;DHT22;30282;16.436;99.370;2023-04-03T04:14:01;33.90;99.90
12602;DHT22;30282;16.436;99.370;2023-04-03T04:16:31;33.90;99.90
12602;DHT22;30282;16.436;99.370;2023-04-03T04:19:00;33.90;99.90
12602;DHT22;30282;16.436;99.370;2023-04-03T04:21:29;33.90;99.90
12602;DHT22;30282;16.436;99.370;2023-04-03T04:23:58;34.00;99.90
12602;DHT22;30282;16.436;99.370;2023-04-03T04:26:29;34.20;99.90
12602;DHT22;30282;16.436;99.370;2023-04-03T04:28:59;34.20;99.90
12602;DHT22;30282;16.436;99.370;2023-04-03T04:31:28;34.40;99.90
12602;DHT22;30282;16.436;99.370;2023-04-03T04:33:57;34.40;99.90
12602;DHT22;30282;16.436;99.370;2023-04-03T04:36:27;34.50;99.90
12602;DHT22;30282;16.436;99.370;2023-04-03T04:38:56;34.60;99.90
12602;DHT22;30282;16.436;99.370;2023-04-03T04:41:25;34.70;99.90
12602;DHT22;30282;16.436;99.370;2023-04-03T04:43:56;34.70;99.90
12602;DHT22;30282;16.436;99.370;2023-04-03T04:46:26;34.80;99.90
12602;DHT22;30282;16.436;99.370;2023-04-03T04:48:55;34.90;99.90
12602;DHT22;30282;16.436;99.370;2023-04-03T04:51:25;35.00;99.90
12602;DHT22;30282;16.436;99.370;2023-04-03T04:53:54;35.00;99.90
12602;DHT22;30282;16.436;99.370;2023-04-03T04:56:23;35.00;99.90
12602;DHT22;30282;16.436;99.370;2023-04-03T04:58:52;34.90;99.00
12602;DHT22;30282;16.436;99.370;2023-04-03T05:01:23;35.00;99.90
12602;DHT22;30282;16.436;99.370;2023-04-03T05:03:52;35.10;99.90
12602;DHT22;30282;16.436;99.370;2023-04-03T05:06:22;35.30;99.20
12602;DHT22;30282;16.436;99.370;2023-04-03T05:08:51;35.50;98.20
12602;DHT22;30282;16.436;99.370;2023-04-03T05:11:20;35.50;95.50
12602;DHT22;30282;16.436;99.370;2023-04-03T05:13:49;35.70;91.40
12602;DHT22;30282;16.436;99.370;2023-04-03T05:16:19;35.80;92.20
12602;DHT22;30282;16.436;99.370;2023-04-03T05:18:50;35.80;92.40
12602;DHT22;30282;16.436;99.370;2023-04-03T05:21:19;35.80;88.90
12602;DHT22;30282;16.436;99.370;2023-04-03T05:23:50;35.80;90.30
12602;DHT22;30282;16.436;99.370;2023-04-03T05:26:19;35.90;91.20
12602;DHT22;30282;16.436;99.370;2023-04-03T05:28:48;36.00;88.50
12602;DHT22;30282;16.436;99.370;2023-04-03T05:31:17;36.10;87.50
12602;DHT22;30282;16.436;99.370;2023-04-03T05:33:48;36.20;90.30
12602;DHT22;30282;16.436;99.370;2023-04-03T05:36:18;36.30;89.80
12602;DHT22;30282;16.436;99.370;2023-04-03T05:38:47;36.30;88.70
12602;DHT22;30282;16.436;99.370;2023-04-03T05:41:17;36.30;90.40
12602;DHT22;30282;16.436;99.370;2023-04-03T05:43:47;36.40;90.50
12602;DHT22;30282;16.436;99.370;2023-04-03T05:46:18;36.40;91.00
12602;DHT22;30282;16.436;99.370;2023-04-03T05:48:49;36.40;91.30
12602;DHT22;30282;16.436;99.370;2023-04-03T05:51:20;36.40;90.50
12602;DHT22;30282;16.436;99.370;2023-04-03T05:53:56;36.50;89.30
12602;DHT22;30282;16.436;99.370;2023-04-03T05:56:28;36.60;88.90
12602;DHT22;30282;16.436;99.370;2023-04-03T05:58:58;36.70;88.70
12602;DHT22;30282;16.436;99.370;2023-04-03T06:01:27;36.80;88.40
12602;DHT22;30282;16.436;99.370;2023-04-03T06:03:58;36.80;89.10
12602;DHT22;30282;16.436;99.370;2023-04-03T06:06:43;36.90;90.40
12602;DHT22;30282;16.436;99.370;2023-04-03T06:09:13;36.90;88.00
12602;DHT22;30282;16.436;99.370;2023-04-03T06:11:43;36.90;88.80
12602;DHT22;30282;16.436;99.370;2023-04-03T06:14:12;36.80;88.30
12602;DHT22;30282;16.436;99.370;2023-04-03T06:16:42;36.80;87.20
12602;DHT22;30282;16.436;99.370;2023-04-03T06:19:13;36.90;86.90
12602;DHT22;30282;16.436;99.370;2023-04-03T06:21:43;37.10;89.20
12602;DHT22;30282;16.436;99.370;2023-04-03T06:24:16;37.20;89.60
12602;DHT22;30282;16.436;99.370;2023-04-03T06:26:46;37.20;86.70
12602;DHT22;30282;16.436;99.370;2023-04-03T06:29:18;37.10;87.00
12602;DHT22;30282;16.436;99.370;2023-04-03T06:31:47;37.20;85.70
12602;DHT22;30282;16.436;99.370;2023-04-03T06:34:19;37.10;84.60
12602;DHT22;30282;16.436;99.370;2023-04-03T06:36:48;37.10;84.70
12602;DHT22;30282;16.436;99.370;2023-04-03T06:39:19;37.10;87.00
12602;DHT22;30282;16.436;99.370;2023-04-03T06:41:49;37.10;86.90
12602;DHT22;30282;16.436;99.370;2023-04-03T06:44:18;37.10;86.10
12602;DHT22;30282;16.436;99.370;2023-04-03T06:46:48;37.20;87.70
12602;DHT22;30282;16.436;99.370;2023-04-03T06:49:20;37.20;85.00
12602;DHT22;30282;16.436;99.370;2023-04-03T06:51:49;37.20;87.10
12602;DHT22;30282;16.436;99.370;2023-04-03T06:54:19;37.20;85.00
12602;DHT22;30282;16.436;99.370;2023-04-03T06:56:48;37.20;87.00
12602;DHT22;30282;16.436;99.370;2023-04-03T06:59:18;37.20;85.80
12602;DHT22;30282;16.436;99.370;2023-04-03T07:01:47;37.20;85.60
12602;DHT22;30282;16.436;99.370;2023-04-03T07:04:16;37.30;88.30
12602;DHT22;30282;16.436;99.370;2023-04-03T07:06:48;37.40;88.30
12602;DHT22;30282;16.436;99.370;2023-04-03T07:09:19;37.40;89.90
12602;DHT22;30282;16.436;99.370;2023-04-03T07:11:48;37.60;88.00
12602;DHT22;30282;16.436;99.370;2023-04-03T07:14:18;37.70;86.10
12602;DHT22;30282;16.436;99.370;2023-04-03T07:16:48;37.60;86.20
12602;DHT22;30282;16.436;99.370;2023-04-03T07:19:17;37.50;86.00
12602;DHT22;30282;16.436;99.370;2023-04-03T07:21:49;37.50;86.80
12602;DHT22;30282;16.436;99.370;2023-04-03T07:24:18;37.60;85.90
12602;DHT22;30282;16.436;99.370;2023-04-03T07:26:50;37.50;85.40
12602;DHT22;30282;16.436;99.370;2023-04-03T07:29:19;37.50;86.20
12602;DHT22;30282;16.436;99.370;2023-04-03T07:31:49;37.50;87.50
12602;DHT22;30282;16.436;99.370;2023-04-03T07:34:18;37.60;89.20
12602;DHT22;30282;16.436;99.370;2023-04-03T07:36:49;37.60;87.40
12602;DHT22;30282;16.436;99.370;2023-04-03T07:39:19;37.50;88.20
12602;DHT22;30282;16.436;99.370;2023-04-03T07:41:48;37.50;89.80
12602;DHT22;30282;16.436;99.370;2023-04-03T07:44:17;37.60;87.20
12602;DHT22;30282;16.436;99.370;2023-04-03T07:46:47;37.50;87.90
12602;DHT22;30282;16.436;99.370;2023-04-03T07:49:17;37.50;87.00
12602;DHT22;30282;16.436;99.370;2023-04-03T07:51:51;37.50;87.10
12602;DHT22;30282;16.436;99.370;2023-04-03T07:54:21;37.60;87.60
12602;DHT22;30282;16.436;99.370;2023-04-03T07:56:50;37.50;88.40
12602;DHT22;30282;16.436;99.370;2023-04-03T07:59:20;37.50;89.20
12602;DHT22;30282;16.436;99.370;2023-04-03T08:01:55;37.50;88.40
12602;DHT22;30282;16.436;99.370;2023-04-03T08:04:27;37.60;88.50
12602;DHT22;30282;16.436;99.370;2023-04-03T08:06:59;37.60;89.80
12602;DHT22;30282;16.436;99.370;2023-04-03T08:09:28;37.60;88.10
12602;DHT22;30282;16.436;99.370;2023-04-03T08:11:58;37.60;89.70
12602;DHT22;30282;16.436;99.370;2023-04-03T08:14:27;37.50;89.10
12602;DHT22;30282;16.436;99.370;2023-04-03T08:17:01;37.60;88.60
12602;DHT22;30282;16.436;99.370;2023-04-03T08:19:32;37.50;89.30
12602;DHT22;30282;16.436;99.370;2023-04-03T08:22:03;37.50;90.30
12602;DHT22;30282;16.436;99.370;2023-04-03T08:24:32;37.60;90.80
12602;DHT22;30282;16.436;99.370;2023-04-03T08:27:02;37.60;90.60
12602;DHT22;30282;16.436;99.370;2023-04-03T08:29:31;37.60;90.10
12602;DHT22;30282;16.436;99.370;2023-04-03T08:32:04;37.50;90.30
12602;DHT22;30282;16.436;99.370;2023-04-03T08:34:33;37.50;90.20
12602;DHT22;30282;16.436;99.370;2023-04-03T08:37:08;37.40;90.10
12602;DHT22;30282;16.436;99.370;2023-04-03T08:39:37;37.40;90.20
12602;DHT22;30282;16.436;99.370;2023-04-03T08:42:15;37.50;90.70
12602;DHT22;30282;16.436;99.370;2023-04-03T08:44:50;37.50;90.50
12602;DHT22;30282;16.436;99.370;2023-04-03T08:47:26;37.50;89.50
12602;DHT22;30282;16.436;99.370;2023-04-03T08:49:59;37.50;89.70
12602;DHT22;30282;16.436;99.370;2023-04-03T08:52:34;37.40;89.90
12602;DHT22;30282;16.436;99.370;2023-04-03T08:55:20;37.40;90.10
12602;DHT22;30282;16.436;99.370;2023-04-03T08:57:54;37.40;90.90
12602;DHT22;30282;16.436;99.370;2023-04-03T09:00:29;37.50;90.90
12602;DHT22;30282;16.436;99.370;2023-04-03T09:03:01;37.50;91.10
12602;DHT22;30282;16.436;99.370;2023-04-03T09:05:39;37.50;91.50
12602;DHT22;30282;16.436;99.370;2023-04-03T09:08:22;37.40;90.60
12602;DHT22;30282;16.436;99.370;2023-04-03T09:10:58;37.30;90.60
12602;DHT22;30282;16.436;99.370;2023-04-03T09:13:33;37.20;90.50
12602;DHT22;30282;16.436;99.370;2023-04-03T09:16:16;37.20;90.10
12602;DHT22;30282;16.436;99.370;2023-04-03T09:18:48;37.20;90.30
12602;DHT22;30282;16.436;99.370;2023-04-03T09:21:23;37.10;90.70
12602;DHT22;30282;16.436;99.370;2023-04-03T09:23:57;37.00;90.50
12602;DHT22;30282;16.436;99.370;2023-04-03T09:26:30;36.90;91.00
12602;DHT22;30282;16.436;99.370;2023-04-03T09:29:05;36.90;92.00
12602;DHT22;30282;16.436;99.370;2023-04-03T09:31:38;36.90;92.70
12602;DHT22;30282;16.436;99.370;2023-04-03T09:34:13;36.90;93.30
12602;DHT22;30282;16.436;99.370;2023-04-03T09:36:45;36.90;93.40
12602;DHT22;30282;16.436;99.370;2023-04-03T09:39:18;36.90;93.10
12602;DHT22;30282;16.436;99.370;2023-04-03T09:42:01;36.80;93.40
12602;DHT22;30282;16.436;99.370;2023-04-03T09:44:32;36.90;91.70
12602;DHT22;30282;16.436;99.370;2023-04-03T09:47:22;36.90;90.60
12602;DHT22;30282;16.436;99.370;2023-04-03T09:50:15;36.80;91.00
12602;DHT22;30282;16.436;99.370;2023-04-03T09:52:48;36.80;89.60
12602;DHT22;30282;16.436;99.370;2023-04-03T09:55:21;36.80;90.40
12602;DHT22;30282;16.436;99.370;2023-04-03T09:57:54;36.80;90.50
12602;DHT22;30282;16.436;99.370;2023-04-03T10:00:25;36.80;90.10
12602;DHT22;30282;16.436;99.370;2023-04-03T10:02:56;36.70;90.80
12602;DHT22;30282;16.436;99.370;2023-04-03T10:05:32;36.70;90.30
12602;DHT22;30282;16.436;99.370;2023-04-03T10:08:20;36.60;90.20
12602;DHT22;30282;16.436;99.370;2023-04-03T10:11:07;36.50;90.60
12602;DHT22;30282;16.436;99.370;2023-04-03T10:13:37;36.50;90.40
12602;DHT22;30282;16.436;99.370;2023-04-03T10:16:20;36.40;90.50
12602;DHT22;30282;16.436;99.370;2023-04-03T10:18:58;36.30;89.50
12602;DHT22;30282;16.436;99.370;2023-04-03T10:21:40;36.30;89.30
12602;DHT22;30282;16.436;99.370;2023-04-03T10:24:16;36.30;90.30
12602;DHT22;30282;16.436;99.370;2023-04-03T10:26:55;36.20;91.60
12602;DHT22;30282;16.436;99.370;2023-04-03T10:29:35;36.10;92.20
12602;DHT22;30282;16.436;99.370;2023-04-03T10:32:19;36.00;92.80
12602;DHT22;30282;16.436;99.370;2023-04-03T10:34:56;35.90;93.10
12602;DHT22;30282;16.436;99.370;2023-04-03T10:37:35;35.80;93.50
12602;DHT22;30282;16.436;99.370;2023-04-03T10:40:19;35.80;93.90
12602;DHT22;30282;16.436;99.370;2023-04-03T10:42:55;35.70;94.10
12602;DHT22;30282;16.436;99.370;2023-04-03T10:45:30;35.70;94.10
12602;DHT22;30282;16.436;99.370;2023-04-03T10:48:06;35.60;94.60
12602;DHT22;30282;16.436;99.370;2023-04-03T10:50:46;35.60;94.90
12602;DHT22;30282;16.436;99.370;2023-04-03T10:53:23;35.60;95.60
12602;DHT22;30282;16.436;99.370;2023-04-03T10:55:58;35.60;97.40
12602;DHT22;30282;16.436;99.370;2023-04-03T10:58:34;35.60;98.20
12602;DHT22;30282;16.436;99.370;2023-04-03T11:01:08;35.50;97.60
12602;DHT22;30282;16.436;99.370;2023-04-03T11:03:40;35.50;96.70
12602;DHT22;30282;16.436;99.370;2023-04-03T11:06:12;35.50;95.90
12602;DHT22;30282;16.436;99.370;2023-04-03T11:08:45;35.50;95.50
12602;DHT22;30282;16.436;99.370;2023-04-03T11:11:19;35.50;95.10
12602;DHT22;30282;16.436;99.370;2023-04-03T11:13:54;35.60;95.10
12602;DHT22;30282;16.436;99.370;2023-04-03T11:16:26;35.60;94.80
12602;DHT22;30282;16.436;99.370;2023-04-03T11:18:59;35.60;95.00
12602;DHT22;30282;16.436;99.370;2023-04-03T11:21:31;35.60;94.40
12602;DHT22;30282;16.436;99.370;2023-04-03T11:24:05;35.60;94.40
12602;DHT22;30282;16.436;99.370;2023-04-03T11:26:38;35.70;94.30
12602;DHT22;30282;16.436;99.370;2023-04-03T11:29:13;35.70;94.00
12602;DHT22;30282;16.436;99.370;2023-04-03T11:32:00;35.60;94.00
12602;DHT22;30282;16.436;99.370;2023-04-03T11:34:35;35.60;93.90
12602;DHT22;30282;16.436;99.370;2023-04-03T11:37:14;35.60;94.20
12602;DHT22;30282;16.436;99.370;2023-04-03T11:39:52;35.50;94.40
12602;DHT22;30282;16.436;99.370;2023-04-03T11:42:31;35.50;94.50
12602;DHT22;30282;16.436;99.370;2023-04-03T11:45:45;35.40;94.60
12602;DHT22;30282;16.436;99.370;2023-04-03T11:48:50;35.40;94.70
12602;DHT22;30282;16.436;99.370;2023-04-03T11:51:41;35.30;94.90
12602;DHT22;30282;16.436;99.370;2023-04-03T11:54:45;35.20;95.20
12602;DHT22;30282;16.436;99.370;2023-04-03T11:57:49;35.20;94.90
12602;DHT22;30282;16.436;99.370;2023-04-03T12:00:54;35.10;95.00
12602;DHT22;30282;16.436;99.370;2023-04-03T12:04:07;35.00;94.90
12602;DHT22;30282;16.436;99.370;2023-04-03T12:10:13;34.80;95.20
12602;DHT22;30282;16.436;99.370;2023-04-03T12:12:56;34.80;95.00
12602;DHT22;30282;16.436;99.370;2023-04-03T12:15:54;34.80;95.20
12602;DHT22;30282;16.436;99.370;2023-04-03T12:18:43;34.70;95.20
12602;DHT22;30282;16.436;99.370;2023-04-03T12:21:15;34.70;95.20
12602;DHT22;30282;16.436;99.370;2023-04-03T12:24:03;34.70;95.30
12602;DHT22;30282;16.436;99.370;2023-04-03T12:26:41;34.70;95.30
12602;DHT22;30282;16.436;99.370;2023-04-03T12:29:17;34.70;95.50
12602;DHT22;30282;16.436;99.370;2023-04-03T12:32:01;34.60;95.50
12602;DHT22;30282;16.436;99.370;2023-04-03T12:34:53;34.50;95.70
12602;DHT22;30282;16.436;99.370;2023-04-03T12:37:41;34.40;95.60
12602;DHT22;30282;16.436;99.370;2023-04-03T12:40:21;34.30;95.60
12602;DHT22;30282;16.436;99.370;2023-04-03T12:46:01;34.10;96.10
12602;DHT22;30282;16.436;99.370;2023-04-03T12:48:39;34.00;96.00
12602;DHT22;30282;16.436;99.370;2023-04-03T12:51:16;34.00;95.90
12602;DHT22;30282;16.436;99.370;2023-04-03T12:53:47;34.00;96.10
12602;DHT22;30282;16.436;99.370;2023-04-03T12:56:22;34.00;96.30
12602;DHT22;30282;16.436;99.370;2023-04-03T12:58:54;34.00;96.10
12602;DHT22;30282;16.436;99.370;2023-04-03T13:01:25;34.00;96.00
12602;DHT22;30282;16.436;99.370;2023-04-03T13:03:57;34.00;95.70
12602;DHT22;30282;16.436;99.370;2023-04-03T13:06:30;34.00;95.60
12602;DHT22;30282;16.436;99.370;2023-04-03T13:09:01;34.00;95.70
12602;DHT22;30282;16.436;99.370;2023-04-03T13:11:33;33.90;96.00
12602;DHT22;30282;16.436;99.370;2023-04-03T13:14:14;33.90;96.10
12602;DHT22;30282;16.436;99.370;2023-04-03T13:16:53;33.80;96.10
12602;DHT22;30282;16.436;99.370;2023-04-03T13:19:27;33.80;96.30
12602;DHT22;30282;16.436;99.370;2023-04-03T13:21:58;33.70;96.20
12602;DHT22;30282;16.436;99.370;2023-04-03T13:24:30;33.60;96.20
12602;DHT22;30282;16.436;99.370;2023-04-03T13:27:00;33.60;96.40
12602;DHT22;30282;16.436;99.370;2023-04-03T13:29:31;33.50;96.40
12602;DHT22;30282;16.436;99.370;2023-04-03T13:32:05;33.40;96.50
12602;DHT22;30282;16.436;99.370;2023-04-03T13:34:40;33.40;96.50
12602;DHT22;30282;16.436;99.370;2023-04-03T13:37:20;33.30;96.50
12602;DHT22;30282;16.436;99.370;2023-04-03T13:39:58;33.30;96.30
12602;DHT22;30282;16.436;99.370;2023-04-03T13:42:29;33.30;96.50
12602;DHT22;30282;16.436;99.370;2023-04-03T13:45:18;33.20;96.60
12602;DHT22;30282;16.436;99.370;2023-04-03T13:47:50;33.10;96.70
12602;DHT22;30282;16.436;99.370;2023-04-03T13:50:22;33.10;96.90
12602;DHT22;30282;16.436;99.370;2023-04-03T13:53:01;33.10;96.90
12602;DHT22;30282;16.436;99.370;2023-04-03T13:55:32;32.90;96.90
12602;DHT22;30282;16.436;99.370;2023-04-03T14:00:50;32.70;97.20
12602;DHT22;30282;16.436;99.370;2023-04-03T14:03:22;32.70;97.40
12602;DHT22;30282;16.436;99.370;2023-04-03T14:05:53;32.50;97.50
12602;DHT22;30282;16.436;99.370;2023-04-03T14:08:23;32.40;98.10
12602;DHT22;30282;16.436;99.370;2023-04-03T14:10:52;32.20;98.70
12602;DHT22;30282;16.436;99.370;2023-04-03T14:13:44;32.00;98.80
12602;DHT22;30282;16.436;99.370;2023-04-03T14:16:15;31.80;99.40
12602;DHT22;30282;16.436;99.370;2023-04-03T14:18:47;31.50;99.90
12602;DHT22;30282;16.436;99.370;2023-04-03T14:21:19;31.30;99.90
12602;DHT22;30282;16.436;99.370;2023-04-03T14:23:48;31.10;99.90
12602;DHT22;30282;16.436;99.370;2023-04-03T14:26:21;30.90;99.90
12602;DHT22;30282;16.436;99.370;2023-04-03T14:28:51;30.80;99.90
12602;DHT22;30282;16.436;99.370;2023-04-03T14:31:21;30.60;99.90
12602;DHT22;30282;16.436;99.370;2023-04-03T14:33:51;30.50;99.90
12602;DHT22;30282;16.436;99.370;2023-04-03T14:36:23;30.30;99.90
12602;DHT22;30282;16.436;99.370;2023-04-03T14:38:53;30.30;99.90
12602;DHT22;30282;16.436;99.370;2023-04-03T14:41:24;30.30;99.90
12602;DHT22;30282;16.436;99.370;2023-04-03T14:43:54;30.30;99.90
12602;DHT22;30282;16.436;99.370;2023-04-03T14:46:26;30.30;99.90
12602;DHT22;30282;16.436;99.370;2023-04-03T14:48:57;30.40;99.90
12602;DHT22;30282;16.436;99.370;2023-04-03T14:51:28;30.50;99.90
12602;DHT22;30282;16.436;99.370;2023-04-03T14:53:57;30.60;99.90
12602;DHT22;30282;16.436;99.370;2023-04-03T14:56:28;30.60;99.90
12602;DHT22;30282;16.436;99.370;2023-04-03T14:58:59;30.70;99.90
12602;DHT22;30282;16.436;99.370;2023-04-03T15:01:29;30.80;99.90
12602;DHT22;30282;16.436;99.370;2023-04-03T15:03:58;30.90;99.90
12602;DHT22;30282;16.436;99.370;2023-04-03T15:06:29;31.00;99.90
12602;DHT22;30282;16.436;99.370;2023-04-03T15:08:58;31.00;99.90
12602;DHT22;30282;16.436;99.370;2023-04-03T15:11:29;31.20;99.90
12602;DHT22;30282;16.436;99.370;2023-04-03T15:13:58;31.30;99.90
12602;DHT22;30282;16.436;99.370;2023-04-03T15:16:27;31.30;99.90
12602;DHT22;30282;16.436;99.370;2023-04-03T15:18:57;31.30;99.90
12602;DHT22;30282;16.436;99.370;2023-04-03T15:21:28;31.20;99.90
12602;DHT22;30282;16.436;99.370;2023-04-03T15:23:57;31.30;99.90
12602;DHT22;30282;16.436;99.370;2023-04-03T15:26:26;31.20;99.90
12602;DHT22;30282;16.436;99.370;2023-04-03T15:28:55;31.10;99.90
12602;DHT22;30282;16.436;99.370;2023-04-03T15:31:24;31.10;99.90
12602;DHT22;30282;16.436;99.370;2023-04-03T15:33:53;31.00;99.90
12602;DHT22;30282;16.436;99.370;2023-04-03T15:36:22;31.00;99.90
12602;DHT22;30282;16.436;99.370;2023-04-03T15:38:53;31.00;99.90
12602;DHT22;30282;16.436;99.370;2023-04-03T15:41:22;30.90;99.90
12602;DHT22;30282;16.436;99.370;2023-04-03T15:43:54;30.80;99.90
12602;DHT22;30282;16.436;99.370;2023-04-03T15:46:23;30.80;99.90
12602;DHT22;30282;16.436;99.370;2023-04-03T15:48:52;30.70;99.90
12602;DHT22;30282;16.436;99.370;2023-04-03T15:51:21;30.70;99.90
12602;DHT22;30282;16.436;99.370;2023-04-03T15:53:52;30.60;99.90
12602;DHT22;30282;16.436;99.370;2023-04-03T15:56:21;30.50;99.90
12602;DHT22;30282;16.436;99.370;2023-04-03T15:58:51;30.40;99.90
12602;DHT22;30282;16.436;99.370;2023-04-03T16:01:20;30.30;99.90